createdAt,value
2022-08-09T00:02:18.904Z,0
2022-08-09T00:08:38.791Z,0
2022-08-09T00:15:06.855Z,0
2022-08-09T00:21:21.773Z,0
2022-08-09T00:27:44.771Z,0
2022-08-09T00:34:04.749Z,0
2022-08-09T00:40:30.266Z,0
2022-08-09T00:46:56.711Z,0
2022-08-09T00:53:11.772Z,0
2022-08-09T00:59:40.825Z,0
2022-08-09T01:05:54.780Z,0
2022-08-09T01:12:13.753Z,0
2022-08-09T01:18:36.786Z,0
2022-08-09T01:24:56.870Z,0
2022-08-09T01:31:23.327Z,0
2022-08-09T01:37:43.038Z,0
2022-08-09T01:44:02.857Z,0
2022-08-09T01:50:29.000Z,0
2022-08-09T01:56:47.263Z,0
2022-08-09T02:03:05.790Z,0
2022-08-09T02:09:41.763Z,0
2022-08-09T02:15:50.224Z,0
2022-08-09T02:22:11.869Z,0
2022-08-09T02:28:31.802Z,0
2022-08-09T02:34:55.832Z,0
2022-08-09T02:41:14.878Z,0
2022-08-09T02:47:46.541Z,0
2022-08-09T02:53:59.596Z,0
2022-08-09T03:00:26.169Z,0
2022-08-09T03:06:40.746Z,0
2022-08-09T03:13:03.791Z,0
2022-08-09T03:19:52.975Z,0
2022-08-09T03:25:57.203Z,0
2022-08-09T03:32:06.729Z,0
2022-08-09T03:48:34.690Z,0
2022-08-09T03:54:54.759Z,0
2022-08-09T04:01:17.905Z,0
2022-08-09T04:07:47.959Z,0
2022-08-09T04:14:37.814Z,0
2022-08-09T04:20:20.807Z,0
2022-08-09T04:26:43.880Z,0
2022-08-09T04:33:03.801Z,5.62
2022-08-09T04:39:31.174Z,5.62
2022-08-09T04:45:52.977Z,5.62
2022-08-09T04:52:09.915Z,5.62
2022-08-09T04:58:31.767Z,5.62
2022-08-09T05:04:55.467Z,11.25
2022-08-09T05:11:12.750Z,11.25
2022-08-09T05:18:37.041Z,11.25
2022-08-09T05:23:58.664Z,11.25
2022-08-09T05:30:19.459Z,11.25
2022-08-09T05:36:38.835Z,16.88
2022-08-09T05:43:01.744Z,16.88
2022-08-09T05:50:05.868Z,16.88
2022-08-09T05:55:44.919Z,16.88
2022-08-09T06:02:04.766Z,16.88
2022-08-09T06:08:27.772Z,16.88
2022-08-09T06:14:47.909Z,22.5
2022-08-09T06:21:10.766Z,22.5
2022-08-09T06:27:41.247Z,22.5
2022-08-09T06:33:53.822Z,22.5
2022-08-09T06:40:21.973Z,22.5
2022-08-09T06:46:39.309Z,28.12
2022-08-09T06:52:56.867Z,28.12
2022-08-09T07:00:53.268Z,28.12
2022-08-09T07:05:53.926Z,28.12
2022-08-09T07:12:02.759Z,28.12
2022-08-09T07:18:22.781Z,33.75
2022-08-09T07:24:49.254Z,33.75
2022-08-09T07:31:06.756Z,33.75
2022-08-09T07:37:29.748Z,33.75
2022-08-09T07:43:56.153Z,33.75
2022-08-09T07:50:12.758Z,39.38
2022-08-09T07:56:32.749Z,39.38
2022-08-09T08:02:55.796Z,39.38
2022-08-09T08:09:18.302Z,45
2022-08-09T08:15:39.365Z,45
2022-08-09T08:21:58.766Z,45
2022-08-09T08:28:25.821Z,45
2022-08-09T08:34:41.752Z,50.62
2022-08-09T08:41:05.736Z,50.62
2022-08-09T08:47:24.758Z,50.62
2022-08-09T08:54:02.857Z,56.25
2022-08-09T09:09:58.902Z,56.25
2022-08-09T09:16:14.770Z,56.25
2022-08-09T09:22:37.962Z,56.25
2022-08-09T09:29:02.770Z,61.88
2022-08-09T09:35:20.743Z,61.88
2022-08-09T09:41:49.555Z,67.5
2022-08-09T09:48:03.748Z,67.5
2022-08-09T09:54:23.868Z,73.12
2022-08-09T10:00:52.890Z,73.12
2022-08-09T10:07:09.902Z,73.12
2022-08-09T10:13:43.674Z,78.75
2022-08-09T10:19:51.993Z,78.75
2022-08-09T10:26:12.762Z,78.75
2022-08-09T10:32:40.040Z,78.75
2022-08-09T10:38:57.345Z,78.75
2022-08-09T10:45:16.114Z,84.38
2022-08-09T10:51:40.743Z,84.38
2022-08-09T10:58:00.018Z,84.38
2022-08-09T11:04:29.684Z,84.38
2022-08-09T11:10:46.951Z,84.38
2022-08-09T11:17:04.770Z,90
2022-08-09T11:23:30.028Z,90
2022-08-09T11:30:02.367Z,90
2022-08-09T11:36:07.758Z,95.62
2022-08-09T11:42:31.131Z,95.62
2022-08-09T11:48:50.803Z,101.25
2022-08-09T11:55:13.766Z,106.88
2022-08-09T12:01:38.037Z,106.88
2022-08-09T12:07:56.783Z,112.5
2022-08-09T12:14:28.609Z,123.75
2022-08-09T12:20:39.794Z,123.75
2022-08-09T12:29:01.159Z,129.38
2022-08-09T12:33:22.764Z,135
2022-08-09T12:39:42.950Z,135
2022-08-09T12:46:05.780Z,135
2022-08-09T12:52:43.106Z,140.62
2022-08-09T12:58:52.385Z,151.88
2022-08-09T13:05:08.750Z,157.5
2022-08-09T13:11:32.014Z,163.12
2022-08-09T13:18:03.052Z,163.12
2022-08-09T13:24:17.749Z,163.12
2022-08-09T13:30:51.679Z,163.12
2022-08-09T13:36:57.960Z,50.62
2022-08-09T13:43:19.068Z,45
2022-08-09T13:49:56.756Z,135
2022-08-09T13:56:00.779Z,163.12
2022-08-09T14:02:25.972Z,168.75
2022-08-09T14:08:43.768Z,168.75
2022-08-09T14:15:06.928Z,168.75
2022-08-09T14:39:51.853Z,163.12
2022-08-09T14:46:40.743Z,151.88
2022-08-09T14:52:34.922Z,146.25
2022-08-09T14:58:56.196Z,135
2022-08-09T15:05:17.733Z,140.62
2022-08-09T15:11:37.771Z,135
2022-08-09T15:18:00.745Z,135
2022-08-09T15:24:24.253Z,135
2022-08-09T15:30:48.132Z,135
2022-08-09T15:37:04.599Z,135
2022-08-09T15:43:29.909Z,146.25
2022-08-09T15:50:00.416Z,146.25
2022-08-09T15:56:28.868Z,157.5
2022-08-09T16:02:29.733Z,151.88
2022-08-09T16:08:52.738Z,180
2022-08-09T16:16:03.963Z,258.75
2022-08-09T16:21:35.730Z,264.38
2022-08-09T16:27:55.774Z,225
2022-08-09T16:34:18.737Z,146.25
2022-08-09T16:40:40.200Z,129.38
2022-08-09T16:47:04.345Z,118.12
2022-08-09T16:53:21.939Z,118.12
2022-08-09T16:59:50.202Z,112.5
2022-08-09T17:06:08.813Z,135
2022-08-09T17:12:27.734Z,247.5
2022-08-09T17:18:47.768Z,185.62
2022-08-09T17:25:11.588Z,90
2022-08-09T17:31:38.742Z,73.12
2022-08-09T17:38:03.150Z,61.88
2022-08-09T17:44:39.178Z,50.62
2022-08-09T17:50:37.684Z,39.38
2022-08-09T17:56:56.777Z,33.75
2022-08-09T18:03:19.825Z,22.5
2022-08-09T18:09:40.850Z,22.5
2022-08-09T18:16:05.737Z,16.88
2022-08-09T18:22:22.773Z,16.88
2022-08-09T18:30:37.414Z,11.25
2022-08-09T18:35:05.755Z,11.25
2022-08-09T18:41:28.773Z,5.62
2022-08-09T18:47:48.738Z,5.62
2022-08-09T18:54:16.401Z,0
2022-08-09T19:00:31.731Z,0
2022-08-09T19:06:54.748Z,0
2022-08-09T19:13:15.260Z,0
2022-08-09T19:19:41.742Z,0
2022-08-09T19:26:01.752Z,0
2022-08-09T19:32:20.713Z,0
2022-08-09T19:38:40.772Z,0
2022-08-09T19:45:03.736Z,0
2022-08-09T19:51:23.720Z,0
2022-08-09T19:57:46.730Z,0
2022-08-09T20:04:14.364Z,0
2022-08-09T20:10:35.040Z,0
2022-08-09T20:33:18.266Z,0
2022-08-09T20:40:16.948Z,0
2022-08-09T20:46:15.663Z,0
2022-08-09T20:52:20.809Z,0
2022-08-09T20:58:44.149Z,0
2022-08-09T21:05:50.283Z,0
2022-08-09T21:18:12.027Z,0
2022-08-09T21:24:09.723Z,0
2022-08-09T21:30:29.806Z,0
2022-08-09T21:36:55.523Z,0
2022-08-09T21:43:12.727Z,0
2022-08-09T21:49:38.961Z,0
2022-08-09T21:55:55.732Z,0
2022-08-09T22:20:16.963Z,0
2022-08-09T22:26:34.660Z,0
2022-08-09T22:32:56.716Z,0
2022-08-09T22:39:20.452Z,0
2022-08-09T22:48:06.355Z,0
2022-08-09T22:51:59.728Z,0
2022-08-09T22:58:30.836Z,0
2022-08-09T23:04:42.747Z,0
2022-08-09T23:11:05.766Z,0
2022-08-09T23:17:25.829Z,0
2022-08-09T23:24:01.603Z,0
2022-08-09T23:30:08.756Z,0
2022-08-09T23:36:31.738Z,0
2022-08-09T23:42:51.734Z,0
2022-08-09T23:49:14.727Z,0
2022-08-09T23:55:37.913Z,0
